Alton, Illinois
Current Conditions -  °F | °C
As of 5:50 PM on Sunday 23 Nov 2014 (Local Time) from KALN Reporting Station
Light Rain Light Rain  
Wind Chill: 11°   Ceiling: 500
Heat Index: 11°   Visibility: 6mi
Dew Point: 11°   Wind: 7mph
Humidity: 100%   Direction: 150°SSE
Pressure: 29.31"   Gusts: NA
Location:  38.89°N, 90.18°W
Report Text: KALN 232350Z 15006KT 6SM -RA OVC005 11/11 A2931
Loading
Personal Weather Stations






























Interactive Weather Map New forecast layout! Learn more

10-Day Weather Forecast

Advertisements
Track Severe Weather on mobile